createdAt,value
2022-08-17T00:01:55.493Z,17.20
2022-08-17T00:03:58.379Z,17.20
2022-08-17T00:06:03.676Z,17.30
2022-08-17T00:08:09.376Z,17.30
2022-08-17T00:10:12.370Z,17.30
2022-08-17T00:12:51.263Z,17.40
2022-08-17T00:14:38.905Z,17.40
2022-08-17T00:16:55.480Z,17.40
2022-08-17T00:19:08.480Z,17.40
2022-08-17T00:21:12.452Z,17.50
2022-08-17T00:23:19.518Z,17.50
2022-08-17T00:25:22.474Z,17.50
2022-08-17T00:27:25.585Z,17.40
2022-08-17T00:29:28.540Z,17.40
2022-08-17T00:31:31.500Z,17.40
2022-08-17T00:33:34.893Z,17.40
2022-08-17T00:35:39.178Z,17.40
2022-08-17T00:37:42.582Z,17.40
2022-08-17T00:39:48.204Z,17.40
2022-08-17T00:41:51.211Z,17.40
2022-08-17T00:43:56.786Z,17.40
2022-08-17T00:46:01.851Z,17.30
2022-08-17T00:48:05.017Z,17.30
2022-08-17T00:50:16.941Z,17.30
2022-08-17T00:52:24.421Z,17.30
2022-08-17T00:54:31.342Z,17.30
2022-08-17T00:56:42.608Z,17.20
2022-08-17T00:58:45.778Z,17.20
2022-08-17T01:00:49.751Z,17.20
2022-08-17T01:02:56.076Z,17.10
2022-08-17T01:04:59.106Z,17.10
2022-08-17T01:07:03.777Z,17.10
2022-08-17T01:09:06.890Z,17.00
2022-08-17T01:11:09.867Z,17.00
2022-08-17T01:13:15.777Z,17.00
2022-08-17T01:15:18.802Z,16.90
2022-08-17T01:17:21.823Z,16.90
2022-08-17T01:19:26.779Z,16.90
2022-08-17T01:21:35.803Z,16.80
2022-08-17T01:23:41.532Z,16.80
2022-08-17T01:25:45.497Z,16.70
2022-08-17T01:27:52.280Z,16.70
2022-08-17T01:30:00.272Z,16.70
2022-08-17T01:32:06.358Z,16.60
2022-08-17T01:34:11.753Z,16.60
2022-08-17T01:36:15.351Z,16.50
2022-08-17T01:38:18.561Z,16.50
2022-08-17T01:40:36.402Z,16.40
2022-08-17T01:42:42.982Z,16.40
2022-08-17T01:44:45.607Z,16.30
2022-08-17T01:46:48.360Z,16.30
2022-08-17T01:48:51.011Z,16.20
2022-08-17T01:50:54.022Z,16.20
2022-08-17T01:52:59.994Z,16.20
2022-08-17T01:55:04.797Z,16.20
2022-08-17T01:57:10.660Z,16.20
2022-08-17T01:59:14.769Z,16.20
2022-08-17T02:01:21.031Z,16.20
2022-08-17T02:03:25.057Z,16.20
2022-08-17T02:05:28.023Z,16.20
2022-08-17T02:07:31.128Z,16.20
2022-08-17T02:09:34.533Z,16.20
2022-08-17T02:11:38.181Z,16.20
2022-08-17T02:13:43.970Z,16.20
2022-08-17T02:15:47.364Z,16.20
2022-08-17T02:17:54.701Z,16.20
2022-08-17T02:19:58.110Z,16.20
2022-08-17T02:22:01.107Z,16.20
2022-08-17T02:24:06.806Z,16.20
2022-08-17T02:26:10.109Z,16.20
2022-08-17T02:28:28.604Z,16.20
2022-08-17T02:31:01.228Z,16.10
2022-08-17T02:32:57.732Z,16.10
2022-08-17T02:35:01.123Z,16.10
2022-08-17T02:37:04.265Z,16.10
2022-08-17T02:39:10.331Z,16.10
2022-08-17T02:41:13.417Z,16.10
2022-08-17T02:43:16.802Z,16.10
2022-08-17T02:45:22.412Z,16.10
2022-08-17T02:47:28.548Z,16.10
2022-08-17T02:49:31.579Z,16.10
2022-08-17T02:51:34.961Z,16.10
2022-08-17T02:53:38.081Z,16.10
2022-08-17T02:55:42.503Z,16.10
2022-08-17T02:57:45.493Z,16.10
2022-08-17T02:59:49.227Z,16.10
2022-08-17T03:01:52.376Z,16.10
2022-08-17T03:03:58.109Z,16.10
2022-08-17T03:06:01.536Z,16.10
2022-08-17T03:08:06.184Z,16.10
2022-08-17T03:10:10.721Z,16.10
2022-08-17T03:12:15.517Z,16.20
2022-08-17T03:14:18.957Z,16.10
2022-08-17T03:16:29.506Z,16.20
2022-08-17T03:18:32.569Z,16.20
2022-08-17T03:20:38.305Z,16.20
2022-08-17T03:22:47.830Z,16.20
2022-08-17T03:24:56.913Z,16.20
2022-08-17T03:26:59.881Z,16.30
2022-08-17T03:29:03.198Z,16.30
2022-08-17T03:31:07.422Z,16.30
2022-08-17T03:33:12.569Z,16.40
2022-08-17T03:35:18.920Z,16.40
2022-08-17T03:37:24.532Z,16.40
2022-08-17T03:39:27.570Z,16.40
2022-08-17T03:41:30.733Z,16.40
2022-08-17T03:43:33.976Z,16.40
2022-08-17T03:45:37.437Z,16.40
2022-08-17T03:47:41.655Z,16.40
2022-08-17T03:49:49.229Z,16.40
2022-08-17T03:51:52.657Z,16.40
2022-08-17T03:53:59.382Z,16.40
2022-08-17T03:56:04.010Z,16.50
2022-08-17T03:58:06.971Z,16.40
2022-08-17T04:00:11.247Z,16.40
2022-08-17T04:02:18.326Z,16.40
2022-08-17T04:04:27.769Z,16.40
2022-08-17T04:06:31.006Z,16.40
2022-08-17T04:08:35.309Z,16.40
2022-08-17T04:10:45.011Z,16.30
2022-08-17T04:12:50.421Z,16.40
2022-08-17T04:14:54.880Z,16.30
2022-08-17T04:16:58.317Z,16.30
2022-08-17T04:19:01.621Z,16.30
2022-08-17T04:21:04.925Z,16.30
2022-08-17T04:23:10.351Z,16.30
2022-08-17T04:25:16.926Z,16.30
2022-08-17T04:27:22.557Z,16.20
2022-08-17T04:29:26.044Z,16.20
2022-08-17T04:31:47.726Z,16.30
2022-08-17T04:33:50.835Z,16.20
2022-08-17T04:35:57.160Z,16.20
2022-08-17T04:38:00.180Z,16.20
2022-08-17T04:40:04.566Z,16.20
2022-08-17T04:42:08.671Z,16.20
2022-08-17T04:44:14.437Z,16.30
2022-08-17T04:46:38.026Z,16.30
2022-08-17T04:48:43.878Z,16.30
2022-08-17T04:50:51.145Z,16.40
2022-08-17T04:52:54.227Z,16.40
2022-08-17T04:54:57.290Z,16.50
2022-08-17T04:57:00.273Z,16.60
2022-08-17T04:59:08.739Z,16.60
2022-08-17T05:01:23.624Z,16.60
2022-08-17T05:03:27.585Z,16.70
2022-08-17T05:05:33.986Z,16.70
2022-08-17T05:07:37.027Z,16.80
2022-08-17T05:09:40.009Z,16.90
2022-08-17T05:11:45.061Z,17.00
2022-08-17T05:13:49.144Z,17.10
2022-08-17T05:15:56.722Z,17.20
2022-08-17T05:18:02.759Z,17.30
2022-08-17T05:20:06.721Z,17.40
2022-08-17T05:22:09.719Z,17.50
2022-08-17T05:24:38.343Z,17.60
2022-08-17T05:26:36.517Z,17.70
2022-08-17T05:28:40.715Z,17.90
2022-08-17T05:30:49.372Z,18.10
2022-08-17T05:32:54.537Z,18.30
2022-08-17T05:35:00.530Z,18.60
2022-08-17T05:37:03.791Z,18.90
2022-08-17T05:39:06.832Z,19.20
2022-08-17T05:41:10.900Z,19.50
2022-08-17T05:43:17.395Z,19.80
2022-08-17T05:45:32.060Z,20.10
2022-08-17T05:47:46.187Z,20.50
2022-08-17T05:49:49.383Z,20.80
2022-08-17T05:52:19.836Z,21.00
2022-08-17T05:54:34.391Z,21.10
2022-08-17T05:56:59.927Z,21.20
2022-08-17T05:59:09.206Z,21.40
2022-08-17T06:01:25.826Z,21.50
2022-08-17T06:03:48.054Z,21.60
2022-08-17T06:06:10.912Z,22.00
2022-08-17T06:08:23.293Z,22.30
2022-08-17T06:10:32.230Z,22.80
2022-08-17T06:12:43.308Z,23.00
2022-08-17T06:14:57.299Z,23.30
2022-08-17T06:17:04.367Z,23.70
2022-08-17T06:19:15.480Z,23.60
2022-08-17T06:21:20.589Z,23.50
2022-08-17T06:23:37.376Z,23.30
2022-08-17T06:25:47.078Z,23.20
2022-08-17T06:27:54.082Z,23.40
2022-08-17T06:30:05.515Z,23.90
2022-08-17T06:32:12.195Z,23.90
2022-08-17T06:34:15.967Z,23.80
2022-08-17T06:36:38.213Z,24.00
2022-08-17T06:38:57.495Z,24.80
2022-08-17T06:41:11.367Z,25.40
2022-08-17T06:43:26.940Z,25.90
2022-08-17T06:45:34.583Z,25.80
2022-08-17T06:47:44.424Z,25.80
2022-08-17T06:49:54.655Z,25.80
2022-08-17T06:52:06.950Z,25.70
2022-08-17T06:54:19.587Z,25.80
2022-08-17T06:56:54.319Z,25.70
2022-08-17T06:58:57.282Z,25.80
2022-08-17T07:01:05.834Z,25.60
2022-08-17T07:03:15.812Z,25.60
2022-08-17T07:05:21.545Z,25.30
2022-08-17T07:07:24.511Z,25.30
2022-08-17T07:09:35.542Z,25.20
2022-08-17T07:11:43.816Z,24.90
2022-08-17T07:13:55.185Z,25.00
2022-08-17T07:16:07.541Z,24.90
2022-08-17T07:18:11.090Z,24.80
2022-08-17T07:20:19.195Z,24.70
2022-08-17T07:22:29.940Z,24.70
2022-08-17T07:24:58.119Z,24.70
2022-08-17T07:27:10.006Z,25.00
2022-08-17T07:29:18.017Z,25.60
2022-08-17T07:31:23.332Z,26.00
2022-08-17T07:33:28.343Z,26.90
2022-08-17T07:35:40.624Z,27.90
2022-08-17T07:37:47.277Z,28.60
2022-08-17T07:40:14.865Z,29.10
2022-08-17T07:42:15.860Z,29.70
2022-08-17T07:44:18.848Z,30.20
2022-08-17T07:46:23.798Z,30.40
2022-08-17T07:48:27.343Z,30.20
2022-08-17T07:50:30.707Z,29.90
2022-08-17T07:52:50.875Z,30.10
2022-08-17T07:54:55.075Z,29.90
2022-08-17T07:56:59.722Z,30.00
2022-08-17T07:59:15.182Z,30.40
2022-08-17T08:01:18.173Z,30.60
2022-08-17T08:03:26.212Z,30.90
2022-08-17T08:05:49.428Z,31.40
2022-08-17T08:07:56.823Z,31.90
2022-08-17T08:10:08.639Z,32.20
2022-08-17T08:12:25.684Z,32.50
2022-08-17T08:14:39.166Z,32.60
2022-08-17T08:16:57.240Z,33.10
2022-08-17T08:19:02.142Z,32.20
2022-08-17T08:21:07.903Z,31.90
2022-08-17T08:23:18.335Z,32.60
2022-08-17T08:25:30.959Z,33.20
2022-08-17T08:27:44.230Z,33.70
2022-08-17T08:29:55.354Z,33.60
2022-08-17T08:32:09.385Z,33.30
2022-08-17T08:34:47.994Z,33.60
2022-08-17T08:37:14.787Z,32.80
2022-08-17T08:39:30.171Z,33.60
2022-08-17T08:41:44.125Z,34.70
2022-08-17T08:43:58.565Z,35.50
2022-08-17T08:46:11.513Z,35.60
2022-08-17T08:48:56.362Z,36.00
2022-08-17T08:51:00.093Z,35.50
2022-08-17T08:53:25.641Z,36.00
2022-08-17T08:55:38.317Z,36.60
2022-08-17T08:57:48.616Z,37.10
2022-08-17T09:00:05.703Z,37.00
2022-08-17T09:02:24.000Z,36.90
2022-08-17T09:05:10.522Z,36.70
2022-08-17T09:07:11.563Z,36.00
2022-08-17T09:09:24.354Z,36.10
2022-08-17T09:12:02.183Z,34.90
2022-08-17T09:14:21.172Z,35.50
2022-08-17T09:16:29.355Z,35.90
2022-08-17T09:19:00.555Z,36.70
2022-08-17T09:21:07.612Z,35.80
2022-08-17T09:23:19.209Z,36.50
2022-08-17T09:25:25.813Z,35.70
2022-08-17T09:27:33.001Z,35.70
2022-08-17T09:29:42.700Z,35.20
2022-08-17T09:31:53.183Z,35.30
2022-08-17T09:34:02.021Z,36.00
2022-08-17T09:36:11.295Z,36.90
2022-08-17T09:38:19.852Z,37.40
2022-08-17T09:40:27.084Z,38.40
2022-08-17T09:42:37.880Z,39.10
2022-08-17T09:44:47.072Z,39.40
2022-08-17T09:46:51.394Z,39.00
2022-08-17T09:49:02.908Z,37.60
2022-08-17T09:51:10.923Z,35.90
2022-08-17T09:53:14.091Z,34.70
2022-08-17T09:55:17.183Z,33.80
2022-08-17T09:57:36.798Z,33.50
2022-08-17T09:59:50.311Z,33.90
2022-08-17T10:02:01.450Z,33.60
2022-08-17T10:04:42.437Z,33.40
2022-08-17T10:06:52.319Z,33.70
2022-08-17T10:09:01.790Z,33.90
2022-08-17T10:11:15.185Z,33.20
2022-08-17T10:13:33.048Z,32.70
2022-08-17T10:15:48.913Z,32.80
2022-08-17T10:18:05.795Z,32.60
2022-08-17T10:20:17.673Z,32.00
2022-08-17T10:22:37.760Z,31.50
2022-08-17T10:25:21.618Z,31.40
2022-08-17T10:27:13.074Z,31.20
2022-08-17T10:29:20.678Z,31.40
2022-08-17T10:31:35.990Z,31.40
2022-08-17T10:33:49.272Z,31.60
2022-08-17T10:36:06.383Z,31.70
2022-08-17T10:38:35.820Z,31.00
2022-08-17T10:40:48.132Z,31.00
2022-08-17T10:42:58.505Z,31.00
2022-08-17T10:45:06.742Z,31.40
2022-08-17T10:47:12.148Z,31.40
2022-08-17T10:49:26.306Z,31.00
2022-08-17T10:51:41.275Z,30.90
2022-08-17T10:53:58.361Z,30.80
2022-08-17T10:56:44.812Z,31.00
2022-08-17T10:58:50.740Z,31.40
2022-08-17T11:00:58.461Z,31.10
2022-08-17T11:03:02.238Z,31.40
2022-08-17T11:05:29.430Z,32.10
2022-08-17T11:07:46.799Z,32.60
2022-08-17T11:10:17.334Z,32.90
2022-08-17T11:12:32.946Z,33.10
2022-08-17T11:14:54.870Z,33.10
2022-08-17T11:17:17.804Z,33.30
2022-08-17T11:19:41.443Z,33.80
2022-08-17T11:22:21.864Z,34.30
2022-08-17T11:24:35.467Z,34.40
2022-08-17T11:26:41.387Z,34.40
2022-08-17T11:28:47.985Z,35.10
2022-08-17T11:30:54.485Z,36.00
2022-08-17T11:32:57.579Z,36.70
2022-08-17T11:35:29.602Z,36.80
2022-08-17T11:37:46.700Z,36.70
2022-08-17T11:40:14.005Z,36.70
2022-08-17T11:42:30.109Z,37.50
2022-08-17T11:44:45.524Z,37.00
2022-08-17T11:47:08.907Z,37.30
2022-08-17T11:49:19.565Z,38.20
2022-08-17T11:51:24.587Z,38.90
2022-08-17T11:54:21.653Z,39.50
2022-08-17T11:56:51.817Z,40.20
2022-08-17T11:58:54.980Z,40.60
2022-08-17T12:01:00.220Z,41.00
2022-08-17T12:03:54.124Z,40.90
2022-08-17T12:06:04.167Z,41.30
2022-08-17T12:08:14.400Z,41.30
2022-08-17T12:10:21.884Z,41.30
2022-08-17T12:12:30.412Z,41.00
2022-08-17T12:15:08.186Z,41.10
2022-08-17T12:17:04.472Z,40.40
2022-08-17T12:19:16.213Z,40.70
2022-08-17T12:21:27.530Z,40.60
2022-08-17T12:23:39.751Z,40.20
2022-08-17T12:25:47.604Z,39.90
2022-08-17T12:28:06.479Z,39.50
2022-08-17T12:30:14.387Z,38.90
2022-08-17T12:32:19.570Z,39.20
2022-08-17T12:34:25.578Z,39.50
2022-08-17T12:36:29.351Z,40.10
2022-08-17T12:38:34.130Z,39.50
2022-08-17T12:40:37.183Z,38.80
2022-08-17T12:42:40.264Z,38.20
2022-08-17T12:44:50.000Z,37.40
2022-08-17T12:46:59.531Z,36.90
2022-08-17T12:49:18.909Z,36.40
2022-08-17T12:51:21.879Z,37.20
2022-08-17T12:53:27.805Z,38.10
2022-08-17T12:55:36.618Z,38.70
2022-08-17T12:57:43.889Z,38.80
2022-08-17T12:59:53.214Z,38.50
2022-08-17T13:01:56.324Z,37.20
2022-08-17T13:04:00.446Z,36.70
2022-08-17T13:06:05.846Z,36.40
2022-08-17T13:08:15.696Z,36.40
2022-08-17T13:10:22.582Z,35.90
2022-08-17T13:12:31.155Z,35.80
2022-08-17T13:14:34.297Z,36.30
2022-08-17T13:16:39.990Z,36.90
2022-08-17T13:18:45.737Z,37.20
2022-08-17T13:20:51.854Z,37.80
2022-08-17T13:22:56.678Z,38.50
2022-08-17T13:25:02.733Z,39.20
2022-08-17T13:27:08.846Z,40.00
2022-08-17T13:29:21.256Z,40.70
2022-08-17T13:31:39.451Z,40.90
2022-08-17T13:34:16.677Z,40.00
2022-08-17T13:36:26.467Z,40.20
2022-08-17T13:38:39.436Z,39.70
2022-08-17T13:40:47.055Z,38.90
2022-08-17T13:42:53.820Z,38.50
2022-08-17T13:44:58.045Z,38.30
2022-08-17T13:47:01.987Z,37.90
2022-08-17T13:49:09.978Z,38.30
2022-08-17T13:51:27.952Z,38.60
2022-08-17T13:53:33.186Z,38.70
2022-08-17T13:55:36.397Z,38.90
2022-08-17T13:57:45.518Z,38.60
2022-08-17T13:59:54.687Z,38.40
2022-08-17T14:01:59.047Z,38.10
2022-08-17T14:04:11.077Z,37.10
2022-08-17T14:06:14.812Z,36.30
2022-08-17T14:08:40.336Z,35.90
2022-08-17T14:10:43.394Z,35.70
2022-08-17T14:12:46.411Z,35.80
2022-08-17T14:14:49.364Z,36.00
2022-08-17T14:16:53.236Z,36.50
2022-08-17T14:18:57.463Z,36.90
2022-08-17T14:21:00.571Z,36.00
2022-08-17T14:23:03.546Z,35.10
2022-08-17T14:25:11.329Z,35.10
2022-08-17T14:27:14.388Z,34.80
2022-08-17T14:29:17.352Z,34.40
2022-08-17T14:31:20.455Z,34.30
2022-08-17T14:33:23.435Z,34.10
2022-08-17T14:35:26.565Z,34.30
2022-08-17T14:37:30.559Z,33.50
2022-08-17T14:39:33.615Z,32.60
2022-08-17T14:41:39.806Z,33.20
2022-08-17T14:43:42.809Z,34.40
2022-08-17T14:45:45.878Z,35.20
2022-08-17T14:47:48.930Z,36.20
2022-08-17T14:49:52.608Z,36.60
2022-08-17T14:51:56.760Z,36.30
2022-08-17T14:53:59.761Z,36.20
2022-08-17T14:56:02.973Z,36.10
2022-08-17T14:58:08.879Z,36.30
2022-08-17T15:00:13.627Z,36.10
2022-08-17T15:02:16.853Z,36.30
2022-08-17T15:04:19.845Z,35.70
2022-08-17T15:06:23.314Z,35.10
2022-08-17T15:08:26.325Z,34.90
2022-08-17T15:10:30.230Z,35.40
2022-08-17T15:12:34.459Z,35.90
2022-08-17T15:14:40.338Z,36.30
2022-08-17T15:16:43.341Z,36.80
2022-08-17T15:18:46.374Z,37.10
2022-08-17T15:20:50.235Z,37.30
2022-08-17T15:22:53.339Z,36.80
2022-08-17T15:24:56.413Z,36.70
2022-08-17T15:26:59.518Z,36.20
2022-08-17T15:29:02.545Z,36.20
2022-08-17T15:31:08.233Z,36.30
2022-08-17T15:33:14.225Z,36.30
2022-08-17T15:35:19.884Z,36.60
2022-08-17T15:37:30.877Z,36.70
2022-08-17T15:39:34.051Z,36.70
2022-08-17T15:41:37.004Z,36.30
2022-08-17T15:43:39.980Z,35.90
2022-08-17T15:45:43.485Z,35.80
2022-08-17T15:47:49.157Z,36.10
2022-08-17T15:49:56.666Z,36.30
2022-08-17T15:52:16.525Z,36.50
2022-08-17T15:54:22.865Z,36.70
2022-08-17T15:56:27.038Z,36.90
2022-08-17T15:58:33.596Z,36.80
2022-08-17T16:00:52.092Z,36.90
2022-08-17T16:03:45.812Z,36.80
2022-08-17T16:05:25.483Z,36.50
2022-08-17T16:07:28.821Z,36.30
2022-08-17T16:09:31.976Z,36.10
2022-08-17T16:11:34.984Z,36.10
2022-08-17T16:13:38.550Z,36.10
2022-08-17T16:15:41.733Z,35.60
2022-08-17T16:17:44.765Z,35.60
2022-08-17T16:19:51.584Z,35.80
2022-08-17T16:21:54.643Z,35.50
2022-08-17T16:24:00.375Z,35.30
2022-08-17T16:26:03.395Z,35.10
2022-08-17T16:28:06.546Z,35.00
2022-08-17T16:30:16.585Z,34.70
2022-08-17T16:32:31.992Z,34.50
2022-08-17T16:34:35.851Z,34.50
2022-08-17T16:36:41.612Z,34.20
2022-08-17T16:38:57.610Z,33.80
2022-08-17T16:41:00.697Z,33.70
2022-08-17T16:43:04.659Z,33.70
2022-08-17T16:45:11.658Z,33.70
2022-08-17T16:47:14.880Z,33.40
2022-08-17T16:49:24.503Z,33.30
2022-08-17T16:51:43.154Z,33.40
2022-08-17T16:53:46.143Z,33.50
2022-08-17T16:56:00.755Z,33.30
2022-08-17T16:58:04.495Z,33.30
2022-08-17T17:00:10.834Z,33.30
2022-08-17T17:02:15.410Z,33.20
2022-08-17T17:04:19.283Z,33.10
2022-08-17T17:06:31.113Z,32.80
2022-08-17T17:08:44.419Z,32.50
2022-08-17T17:10:49.635Z,32.30
2022-08-17T17:13:02.745Z,32.10
2022-08-17T17:15:08.534Z,31.80
2022-08-17T17:17:18.531Z,31.50
2022-08-17T17:19:34.523Z,31.20
2022-08-17T17:21:44.330Z,30.90
2022-08-17T17:23:54.713Z,30.80
2022-08-17T17:26:03.585Z,30.50
2022-08-17T17:28:15.106Z,30.20
2022-08-17T17:30:21.561Z,30.10
2022-08-17T17:32:33.879Z,29.80
2022-08-17T17:34:38.007Z,29.50
2022-08-17T17:36:44.136Z,29.20
2022-08-17T17:38:53.226Z,29.10
2022-08-17T17:41:02.254Z,28.80
2022-08-17T17:43:34.676Z,28.60
2022-08-17T17:45:40.820Z,28.40
2022-08-17T17:47:44.579Z,28.20
2022-08-17T17:49:47.891Z,28.00
2022-08-17T17:52:09.875Z,27.90
2022-08-17T17:54:30.013Z,27.70
2022-08-17T17:56:43.963Z,27.50
2022-08-17T17:59:01.520Z,27.30
2022-08-17T18:01:19.510Z,27.10
2022-08-17T18:03:36.964Z,27.00
2022-08-17T18:06:05.166Z,26.90
2022-08-17T18:08:19.386Z,26.70
2022-08-17T18:10:33.149Z,26.50
2022-08-17T18:12:43.478Z,26.40
2022-08-17T18:15:05.537Z,26.30
2022-08-17T18:17:08.605Z,26.10
2022-08-17T18:19:15.334Z,25.90
2022-08-17T18:21:21.022Z,25.80
2022-08-17T18:23:28.435Z,25.60
2022-08-17T18:25:43.928Z,25.50
2022-08-17T18:27:51.559Z,25.30
2022-08-17T18:29:56.906Z,25.20
2022-08-17T18:32:31.766Z,25.10
2022-08-17T18:34:47.323Z,25.00
2022-08-17T18:36:52.497Z,24.80
2022-08-17T18:39:11.133Z,24.70
2022-08-17T18:41:22.295Z,24.50
2022-08-17T18:43:27.861Z,24.40
2022-08-17T18:45:44.759Z,24.30
2022-08-17T18:47:53.826Z,24.10
2022-08-17T18:50:10.862Z,24.10
2022-08-17T18:52:15.940Z,24.00
2022-08-17T18:54:21.654Z,23.90
2022-08-17T18:56:32.665Z,23.90
2022-08-17T18:58:35.785Z,23.80
2022-08-17T19:00:40.994Z,23.70
2022-08-17T19:02:51.882Z,23.60
2022-08-17T19:05:04.796Z,23.50
2022-08-17T19:07:24.512Z,23.40
2022-08-17T19:09:30.652Z,23.20
2022-08-17T19:11:36.635Z,23.10
2022-08-17T19:13:44.016Z,23.00
2022-08-17T19:16:11.394Z,23.00
2022-08-17T19:18:21.209Z,22.90
2022-08-17T19:20:30.382Z,22.80
2022-08-17T19:22:49.719Z,22.70
2022-08-17T19:25:02.710Z,22.60
2022-08-17T19:27:15.661Z,22.60
2022-08-17T19:29:26.456Z,22.60
2022-08-17T19:31:31.293Z,22.50
2022-08-17T19:33:34.775Z,22.40
2022-08-17T19:35:47.275Z,22.40
2022-08-17T19:38:02.731Z,22.30
2022-08-17T19:40:35.117Z,22.30
2022-08-17T19:42:49.953Z,22.20
2022-08-17T19:45:01.509Z,22.10
2022-08-17T19:47:17.230Z,22.00
2022-08-17T19:49:41.836Z,22.00
2022-08-17T19:51:49.614Z,21.80
2022-08-17T19:54:07.088Z,21.70
2022-08-17T19:56:18.255Z,21.70
2022-08-17T19:58:41.904Z,21.50
2022-08-17T20:00:51.717Z,21.40
2022-08-17T20:02:59.913Z,21.40
2022-08-17T20:05:08.562Z,21.30
2022-08-17T20:07:25.399Z,21.20
2022-08-17T20:09:34.642Z,21.20
2022-08-17T20:11:43.419Z,21.10
2022-08-17T20:13:55.838Z,21.00
2022-08-17T20:15:59.381Z,21.00
2022-08-17T20:18:07.598Z,20.80
2022-08-17T20:20:24.174Z,20.80
2022-08-17T20:22:30.843Z,20.70
2022-08-17T20:24:45.696Z,20.60
2022-08-17T20:26:58.361Z,20.50
2022-08-17T20:29:20.634Z,20.50
2022-08-17T20:31:43.994Z,20.40
2022-08-17T20:33:47.015Z,20.40
2022-08-17T20:36:11.975Z,20.40
2022-08-17T20:38:39.063Z,20.30
2022-08-17T20:41:10.561Z,20.30
2022-08-17T20:43:49.526Z,20.20
2022-08-17T20:46:15.582Z,20.20
2022-08-17T20:48:37.490Z,20.00
2022-08-17T20:50:45.482Z,20.00
2022-08-17T20:52:52.602Z,20.00
2022-08-17T20:54:57.066Z,19.90
2022-08-17T20:57:01.888Z,19.90
2022-08-17T20:59:09.455Z,19.80
2022-08-17T21:01:18.436Z,19.80
2022-08-17T21:03:52.348Z,19.70
2022-08-17T21:06:00.187Z,19.70
2022-08-17T21:08:15.059Z,19.70
2022-08-17T21:10:30.860Z,19.60
2022-08-17T21:12:43.098Z,19.60
2022-08-17T21:15:00.237Z,19.50
2022-08-17T21:17:21.011Z,19.50
2022-08-17T21:20:00.256Z,19.40
2022-08-17T21:22:16.646Z,19.40
2022-08-17T21:24:33.454Z,19.30
2022-08-17T21:26:50.276Z,19.30
2022-08-17T21:29:32.562Z,19.20
2022-08-17T21:31:35.172Z,19.20
2022-08-17T21:34:22.865Z,19.20
2022-08-17T21:36:26.915Z,19.10
2022-08-17T21:38:35.424Z,19.00
2022-08-17T21:40:43.446Z,19.00
2022-08-17T21:42:52.026Z,18.90
2022-08-17T21:44:59.373Z,18.90
2022-08-17T21:47:19.145Z,18.90
2022-08-17T21:49:28.471Z,18.80
2022-08-17T21:51:31.825Z,18.80
2022-08-17T21:53:40.117Z,18.70
2022-08-17T21:55:43.110Z,18.70
2022-08-17T21:57:52.799Z,18.70
2022-08-17T22:00:10.921Z,18.60
2022-08-17T22:02:19.497Z,18.60
2022-08-17T22:04:30.408Z,18.60
2022-08-17T22:06:40.288Z,18.60
2022-08-17T22:08:56.557Z,18.50
2022-08-17T22:11:01.824Z,18.50
2022-08-17T22:13:16.735Z,18.40
2022-08-17T22:15:20.612Z,18.40
2022-08-17T22:17:25.681Z,18.40
2022-08-17T22:19:31.559Z,18.40
2022-08-17T22:21:34.624Z,18.30
2022-08-17T22:23:40.452Z,18.20
2022-08-17T22:25:59.074Z,18.20
2022-08-17T22:28:04.454Z,18.10
2022-08-17T22:30:17.070Z,18.10
2022-08-17T22:32:35.690Z,18.10
2022-08-17T22:34:41.302Z,18.00
2022-08-17T22:36:44.287Z,18.00
2022-08-17T22:38:47.550Z,17.90
2022-08-17T22:40:53.094Z,17.90
2022-08-17T22:42:57.198Z,17.90
2022-08-17T22:45:00.643Z,17.90
2022-08-17T22:47:06.909Z,17.80
2022-08-17T22:49:23.183Z,17.80
2022-08-17T22:51:30.684Z,17.80
2022-08-17T22:53:34.808Z,17.70
2022-08-17T22:55:37.861Z,17.70
2022-08-17T22:57:45.814Z,17.70
2022-08-17T22:59:51.291Z,17.70
2022-08-17T23:02:12.937Z,17.70
2022-08-17T23:04:32.161Z,17.60
2022-08-17T23:06:39.967Z,17.60
2022-08-17T23:08:43.180Z,17.60
2022-08-17T23:10:46.850Z,17.60
2022-08-17T23:12:50.219Z,17.60
2022-08-17T23:14:58.657Z,17.50
2022-08-17T23:17:02.094Z,17.50
2022-08-17T23:19:05.416Z,17.50
2022-08-17T23:21:08.553Z,17.50
2022-08-17T23:23:23.424Z,17.50
2022-08-17T23:25:29.265Z,17.50
2022-08-17T23:27:32.590Z,17.40
2022-08-17T23:29:36.063Z,17.40
2022-08-17T23:31:39.888Z,17.30
2022-08-17T23:33:43.263Z,17.30
2022-08-17T23:35:46.322Z,17.30
2022-08-17T23:37:49.305Z,17.30
2022-08-17T23:39:54.992Z,17.30
2022-08-17T23:41:58.939Z,17.20
2022-08-17T23:44:04.294Z,17.20
2022-08-17T23:46:07.348Z,17.20
2022-08-17T23:48:10.341Z,17.10
2022-08-17T23:50:14.026Z,17.10
2022-08-17T23:52:17.097Z,17.10
2022-08-17T23:54:23.295Z,17.10
2022-08-17T23:56:28.911Z,17.00
2022-08-17T23:58:31.941Z,17.00
